Terminal Aerodrome Forecast
Issued by NWS

Home | Current Version | Previous Version | Text Only | Print | Product List | Glossary On
Versions: 1 2 3 4 5 6 7 8 9 10 11 12 13 14 15 16 17 18 19 20 21 22 23 24
000
FTPA31 PHFO 261100
TAFOGG
TAF
PHOG 261120Z 2612/2712 19005KT P6SM FEW050
     FM261800 VRB05KT P6SM FEW050
     FM262100 31005KT P6SM FEW030 SCT050
     FM270600 33006KT P6SM VCSH SCT025 BKN045
     FM271000 02010KT P6SM VCSH SCT025 BKN045
      AMD LTD TO WX VIS AND WIND TIL 261600=

USA.gov is the U.S. government's official web portal to all federal, state and local government web resources and services.